Time;durP1;ratioP1;P1;durP2;ratioP2;P2;SDS_P1;SDS_P2;PMS_P1;PMS_P2;Temp;Humidity;BMP_temperature;BMP_pressure;BME280_temperature;BME280_humidity;BME280_pressure;Samples;Min_cycle;Max_cycle;Signal;HPM_P1;HPM_P2
2023/07/16 00:02:05;;;;;;;5.65;1.73;;;23.20;78.40;;;;;;5074275;28;20485;-73
2023/07/16 00:04:32;;;;;;;5.93;1.60;;;23.20;77.70;;;;;;5074198;28;20016;-73
2023/07/16 00:06:59;;;;;;;5.10;2.17;;;23.20;78.20;;;;;;5074276;28;20029;-73
2023/07/16 00:09:25;;;;;;;5.82;1.77;;;23.20;78.00;;;;;;5074261;28;20025;-74
2023/07/16 00:11:50;;;;;;;6.95;2.15;;;23.10;77.80;;;;;;5074176;28;20020;-73
2023/07/16 00:14:17;;;;;;;6.30;1.80;;;23.10;77.80;;;;;;5074067;28;20055;-73
2023/07/16 00:16:43;;;;;;;8.95;2.17;;;23.10;77.50;;;;;;5055960;28;20027;-73
2023/07/16 00:19:11;;;;;;;6.47;2.00;;;23.00;77.70;;;;;;5073969;28;20031;-73
2023/07/16 00:21:37;;;;;;;9.30;2.00;;;23.10;78.40;;;;;;5056074;28;20110;-73
2023/07/16 00:24:03;;;;;;;8.88;2.25;;;23.10;77.70;;;;;;5073937;28;20023;-73
2023/07/16 00:26:28;;;;;;;4.90;1.80;;;23.00;77.70;;;;;;5073996;28;20062;-73
2023/07/16 00:28:54;;;;;;;6.20;1.73;;;23.00;77.80;;;;;;5073772;28;20024;-73
2023/07/16 00:31:20;;;;;;;7.72;2.60;;;23.00;77.80;;;;;;5073356;28;20041;-73
2023/07/16 00:33:45;;;;;;;5.93;1.77;;;22.90;77.90;;;;;;5055905;28;20073;-73
2023/07/16 00:36:11;;;;;;;4.63;1.85;;;23.00;78.80;;;;;;5073583;28;20533;-73
2023/07/16 00:38:36;;;;;;;8.52;2.30;;;22.90;78.60;;;;;;5055777;28;20094;-73
2023/07/16 00:41:02;;;;;;;6.45;1.73;;;22.90;78.60;;;;;;5073455;28;20488;-73
2023/07/16 00:43:28;;;;;;;8.48;2.20;;;22.90;79.40;;;;;;5073810;28;20025;-73
2023/07/16 00:45:54;;;;;;;8.48;2.30;;;22.80;79.10;;;;;;5073357;28;20020;-73
2023/07/16 00:48:20;;;;;;;7.38;2.10;;;22.90;79.20;;;;;;5073756;28;20025;-73
2023/07/16 00:50:46;;;;;;;5.07;2.08;;;22.80;79.50;;;;;;5073167;28;20031;-73
2023/07/16 00:53:14;;;;;;;11.93;2.72;;;22.90;79.40;;;;;;5073573;28;20061;-73
2023/07/16 00:55:39;;;;;;;6.53;2.30;;;22.80;79.00;;;;;;5073328;28;20029;-73
2023/07/16 00:58:06;;;;;;;8.52;2.38;;;22.80;79.50;;;;;;5073554;28;20484;-73
2023/07/16 01:00:37;;;;;;;5.07;2.28;;;22.80;79.60;;;;;;5072944;28;20037;-73
2023/07/16 01:03:05;;;;;;;5.53;2.10;;;22.80;80.20;;;;;;5073445;28;20031;-73
2023/07/16 01:05:47;;;;;;;8.43;2.58;;;22.70;79.60;;;;;;5073124;28;20466;-73
2023/07/16 01:08:14;;;;;;;5.70;2.10;;;22.70;79.70;;;;;;5073479;28;20074;-73
2023/07/16 01:10:41;;;;;;;8.02;2.60;;;22.70;79.80;;;;;;5073267;28;20036;-73
2023/07/16 01:13:07;;;;;;;8.95;2.22;;;22.70;80.00;;;;;;5073240;28;20095;-73
2023/07/16 01:15:32;;;;;;;7.30;2.42;;;22.60;79.90;;;;;;5072848;28;20509;-73
2023/07/16 01:17:58;;;;;;;7.50;2.40;;;22.60;80.00;;;;;;5073192;28;20024;-73
2023/07/16 01:20:25;;;;;;;7.03;2.13;;;22.60;80.40;;;;;;5072941;28;20067;-73
2023/07/16 01:23:14;;;;;;;5.63;1.80;;;22.60;80.30;;;;;;5073417;28;20025;-73
2023/07/16 01:26:08;;;;;;;6.78;2.20;;;22.60;80.70;;;;;;5044617;28;20041;-73
2023/07/16 01:28:54;;;;;;;6.57;2.42;;;22.60;80.00;;;;;;5072872;28;20032;-73
2023/07/16 01:31:22;;;;;;;5.05;1.83;;;22.60;79.90;;;;;;5072972;28;20040;-73
2023/07/16 01:33:49;;;;;;;5.47;2.22;;;22.50;80.00;;;;;;5073130;28;20469;-73
2023/07/16 01:36:16;;;;;;;6.75;2.75;;;22.50;79.80;;;;;;5073006;28;20032;-73
2023/07/16 01:38:42;;;;;;;6.25;2.25;;;22.50;80.30;;;;;;5073098;28;20017;-73
2023/07/16 01:41:07;;;;;;;6.82;1.92;;;22.50;80.00;;;;;;5072712;28;20082;-73
2023/07/16 01:43:33;;;;;;;5.57;2.20;;;22.50;81.00;;;;;;5054841;28;20021;-73
2023/07/16 01:45:59;;;;;;;8.00;2.47;;;22.50;80.30;;;;;;5054902;28;20489;-73
2023/07/16 01:48:33;;;;;;;6.10;2.25;;;22.50;81.10;;;;;;5077059;28;20044;-74
2023/07/16 01:50:59;;;;;;;4.78;1.52;;;22.50;79.10;;;;;;5076641;28;20040;-74
2023/07/16 01:53:25;;;;;;;3.45;1.65;;;22.50;80.00;;;;;;5077061;28;20428;-74
2023/07/16 01:55:51;;;;;;;7.43;2.70;;;22.40;80.90;;;;;;5076768;28;20021;-73
2023/07/16 01:58:16;;;;;;;6.05;1.98;;;22.50;79.30;;;;;;5076670;28;20093;-74
2023/07/16 02:00:43;;;;;;;4.90;2.10;;;22.40;79.80;;;;;;5076744;28;20054;-74
2023/07/16 02:03:08;;;;;;;7.30;2.45;;;22.40;79.70;;;;;;5076703;28;20066;-74
2023/07/16 02:05:34;;;;;;;7.38;2.17;;;22.40;78.90;;;;;;5058756;28;20055;-74
2023/07/16 02:08:00;;;;;;;5.82;2.38;;;22.40;78.80;;;;;;5076623;28;20028;-74
2023/07/16 02:10:25;;;;;;;7.80;2.70;;;22.30;78.60;;;;;;5076490;28;20016;-74
2023/07/16 02:12:51;;;;;;;5.57;2.47;;;22.30;78.50;;;;;;5076570;28;20037;-73
2023/07/16 02:15:17;;;;;;;5.95;2.38;;;22.30;80.10;;;;;;5076442;28;20025;-74
2023/07/16 02:17:44;;;;;;;5.05;2.10;;;22.30;79.70;;;;;;5076435;28;20100;-73
2023/07/16 02:20:12;;;;;;;5.03;2.58;;;22.30;80.00;;;;;;5076244;28;20039;-74
2023/07/16 02:22:38;;;;;;;4.82;2.25;;;22.30;80.90;;;;;;5076175;28;20028;-73
2023/07/16 02:25:04;;;;;;;6.85;2.67;;;22.30;79.70;;;;;;5076406;28;20086;-74
2023/07/16 02:27:30;;;;;;;7.18;2.30;;;22.30;80.50;;;;;;5075807;28;20359;-74
2023/07/16 02:29:55;;;;;;;8.20;2.67;;;22.30;80.00;;;;;;5076207;28;20047;-74
2023/07/16 02:32:21;;;;;;;6.50;2.63;;;22.30;79.90;;;;;;5076112;28;20487;-74
2023/07/16 02:34:47;;;;;;;5.28;2.97;;;22.30;79.20;;;;;;5076233;28;20103;-75
2023/07/16 02:37:13;;;;;;;5.30;2.90;;;22.30;79.00;;;;;;5057977;28;20070;-74
2023/07/16 02:39:39;;;;;;;5.65;3.00;;;22.20;80.20;;;;;;5076028;28;20452;-74
2023/07/16 02:42:05;;;;;;;7.28;2.75;;;22.20;78.90;;;;;;5075431;28;20029;-74
2023/07/16 02:44:30;;;;;;;6.13;2.47;;;22.20;79.80;;;;;;5076014;28;20140;-74
2023/07/16 02:46:56;;;;;;;6.55;3.33;;;22.20;78.50;;;;;;5075815;28;20035;-74
2023/07/16 02:49:22;;;;;;;8.23;3.28;;;22.20;78.80;;;;;;5075926;28;20021;-74
2023/07/16 02:51:47;;;;;;;8.30;2.90;;;22.20;77.70;;;;;;5075442;28;20033;-74
2023/07/16 02:54:13;;;;;;;6.05;2.95;;;22.20;79.80;;;;;;5075866;28;20104;-75
2023/07/16 02:56:39;;;;;;;6.05;3.05;;;22.20;77.80;;;;;;5057437;28;20029;-73
2023/07/16 02:59:04;;;;;;;5.40;2.95;;;22.10;78.00;;;;;;5075280;28;20108;-73
2023/07/16 03:01:30;;;;;;;9.32;3.53;;;22.10;78.50;;;;;;5057185;28;20025;-74
2023/07/16 03:03:56;;;;;;;7.45;3.30;;;22.10;77.80;;;;;;5074046;28;20549;-73
2023/07/16 03:06:21;;;;;;;5.57;3.00;;;22.10;78.30;;;;;;5075494;28;20027;-74
2023/07/16 03:08:48;;;;;;;6.40;2.92;;;22.10;79.00;;;;;;5075563;28;20056;-74
2023/07/16 03:11:14;;;;;;;4.63;2.97;;;22.10;79.70;;;;;;5075189;28;20020;-73
2023/07/16 03:13:39;;;;;;;7.03;3.38;;;22.10;79.20;;;;;;5075367;28;20032;-74
2023/07/16 03:16:05;;;;;;;6.90;3.78;;;22.10;77.30;;;;;;5075499;28;20385;-74
2023/07/16 03:18:32;;;;;;;9.23;3.20;;;22.00;77.80;;;;;;5075417;28;20020;-73
2023/07/16 03:20:58;;;;;;;5.05;3.03;;;22.00;78.80;;;;;;5075252;28;20033;-74
2023/07/16 03:23:24;;;;;;;6.22;3.08;;;22.00;78.80;;;;;;5075089;28;20479;-74
2023/07/16 03:25:50;;;;;;;6.47;3.03;;;22.00;79.00;;;;;;5057085;28;20036;-74
2023/07/16 03:28:15;;;;;;;5.57;3.15;;;22.00;79.40;;;;;;5075143;28;20074;-74
2023/07/16 03:30:46;;;;;;;7.00;3.15;;;22.00;79.20;;;;;;5075184;28;20024;-74
2023/07/16 03:33:12;;;;;;;5.20;3.10;;;22.00;79.20;;;;;;5074872;28;20075;-74
2023/07/16 03:35:42;;;;;;;6.18;3.22;;;22.00;79.50;;;;;;5074997;28;20481;-74
2023/07/16 03:38:07;;;;;;;8.32;3.33;;;22.00;78.20;;;;;;5074963;28;20048;-74
2023/07/16 03:40:33;;;;;;;5.93;3.20;;;21.90;77.90;;;;;;5074601;28;20469;-74
2023/07/16 03:42:59;;;;;;;5.20;2.80;;;21.90;78.40;;;;;;5074823;28;20405;-73
2023/07/16 03:45:25;;;;;;;7.07;3.53;;;21.90;77.80;;;;;;5075006;28;20020;-74
2023/07/16 03:47:50;;;;;;;7.75;3.25;;;21.90;78.70;;;;;;5074696;28;20591;-74
2023/07/16 03:50:16;;;;;;;5.00;3.00;;;21.90;78.80;;;;;;5074478;28;20044;-74
2023/07/16 03:52:43;;;;;;;6.22;3.58;;;21.90;79.20;;;;;;5074608;28;20036;-74
2023/07/16 03:55:09;;;;;;;7.93;3.55;;;21.90;79.80;;;;;;5074307;28;20042;-74
2023/07/16 03:57:35;;;;;;;7.45;3.90;;;21.80;79.00;;;;;;5074674;28;20020;-74
2023/07/16 04:00:01;;;;;;;5.15;3.60;;;21.80;79.30;;;;;;5074209;28;20032;-73
2023/07/16 04:02:27;;;;;;;6.55;3.55;;;21.90;80.00;;;;;;5074576;28;20020;-73
2023/07/16 04:04:52;;;;;;;8.73;4.15;;;21.80;79.60;;;;;;5074401;28;20474;-73
2023/07/16 04:07:18;;;;;;;5.70;3.20;;;21.80;79.20;;;;;;5074421;28;20104;-73
2023/07/16 04:09:44;;;;;;;7.47;3.70;;;21.80;79.10;;;;;;5073445;28;20481;-73
2023/07/16 04:12:09;;;;;;;6.60;3.55;;;21.80;78.80;;;;;;5074460;28;20043;-73
2023/07/16 04:14:35;;;;;;;8.73;3.75;;;21.80;79.00;;;;;;5074275;28;20031;-73
2023/07/16 04:17:00;;;;;;;7.03;3.75;;;21.80;80.30;;;;;;5074168;28;20462;-73
2023/07/16 04:19:26;;;;;;;7.50;4.15;;;21.80;79.60;;;;;;5074071;28;20033;-73
2023/07/16 04:21:51;;;;;;;7.80;3.95;;;21.80;79.70;;;;;;5074242;28;20029;-73
2023/07/16 04:24:17;;;;;;;6.50;3.75;;;21.80;78.90;;;;;;5073637;28;20496;-73
2023/07/16 04:26:42;;;;;;;8.65;4.85;;;21.80;79.60;;;;;;5074109;28;20523;-73
2023/07/16 04:29:08;;;;;;;9.00;4.40;;;21.70;79.00;;;;;;5074022;28;20017;-73
2023/07/16 04:31:34;;;;;;;6.15;4.28;;;21.70;79.40;;;;;;5073932;28;20473;-74
2023/07/16 04:33:59;;;;;;;8.45;4.00;;;21.70;79.10;;;;;;5073863;28;20027;-72
2023/07/16 04:36:25;;;;;;;6.43;3.80;;;21.70;79.20;;;;;;5073923;28;20025;-73
2023/07/16 04:38:50;;;;;;;8.95;3.92;;;21.70;79.90;;;;;;5073427;28;20416;-73
2023/07/16 04:41:16;;;;;;;8.20;4.47;;;21.70;80.00;;;;;;5073714;28;20496;-73
2023/07/16 04:43:42;;;;;;;8.13;4.68;;;21.70;80.10;;;;;;5073691;28;20473;-73
2023/07/16 04:46:07;;;;;;;7.57;4.47;;;21.70;79.70;;;;;;5073664;28;20029;-73
2023/07/16 04:48:33;;;;;;;10.20;5.28;;;21.60;79.70;;;;;;5055732;28;20032;-73
2023/07/16 04:50:59;;;;;;;11.00;4.57;;;21.70;79.90;;;;;;5073274;28;20044;-73
2023/07/16 04:53:25;;;;;;;7.72;4.72;;;21.60;79.40;;;;;;5073280;28;20223;-73
2023/07/16 04:55:51;;;;;;;8.35;4.40;;;21.60;79.80;;;;;;5073522;28;20134;-73
2023/07/16 04:58:16;;;;;;;7.47;4.72;;;21.60;79.80;;;;;;5073506;28;20382;-73
2023/07/16 05:00:42;;;;;;;8.10;4.63;;;21.60;79.60;;;;;;5067986;28;20040;-73
2023/07/16 05:03:08;;;;;;;9.02;4.35;;;21.60;80.50;;;;;;5053301;28;20017;-73
2023/07/16 05:05:34;;;;;;;7.43;4.20;;;21.60;80.20;;;;;;5051569;28;20451;-73
2023/07/16 05:08:00;;;;;;;8.05;4.38;;;21.60;80.20;;;;;;5053081;28;20021;-74
2023/07/16 05:10:27;;;;;;;8.45;4.82;;;21.60;80.20;;;;;;5053115;28;20116;-74
2023/07/16 05:12:52;;;;;;;8.38;4.40;;;21.60;81.00;;;;;;5053268;28;20029;-74
2023/07/16 05:15:18;;;;;;;5.68;4.05;;;21.60;81.30;;;;;;5053032;28;20070;-73
2023/07/16 05:17:43;;;;;;;7.85;4.60;;;21.60;81.40;;;;;;5053327;28;20044;-73
2023/07/16 05:20:09;;;;;;;6.53;4.28;;;21.60;80.80;;;;;;5053069;28;20426;-73
2023/07/16 05:22:35;;;;;;;9.35;4.63;;;21.60;80.60;;;;;;5052055;28;20033;-73
2023/07/16 05:25:02;;;;;;;7.70;5.25;;;21.60;80.90;;;;;;5053124;28;20363;-74
2023/07/16 05:27:28;;;;;;;6.97;4.38;;;21.60;80.40;;;;;;5053247;28;20458;-74
2023/07/16 05:29:53;;;;;;;9.15;5.55;;;21.60;81.30;;;;;;5052940;28;20028;-74
2023/07/16 05:32:22;;;;;;;7.78;4.72;;;21.60;80.30;;;;;;5053084;28;20033;-73
2023/07/16 05:34:48;;;;;;;6.85;4.65;;;21.60;80.50;;;;;;5052803;28;20036;-73
2023/07/16 05:37:13;;;;;;;6.53;4.75;;;21.60;81.30;;;;;;5052885;28;20013;-74
2023/07/16 05:39:39;;;;;;;8.20;4.53;;;21.60;81.00;;;;;;5052907;28;20523;-73
2023/07/16 05:42:05;;;;;;;7.82;5.53;;;21.50;81.10;;;;;;5053022;28;20037;-73
2023/07/16 05:44:31;;;;;;;10.75;4.63;;;21.60;81.10;;;;;;5052842;28;20466;-73
2023/07/16 05:46:56;;;;;;;8.50;4.85;;;21.60;81.50;;;;;;5052917;28;20029;-74
2023/07/16 05:49:23;;;;;;;10.23;5.40;;;21.60;81.40;;;;;;5034664;28;20104;-73
2023/07/16 05:51:48;;;;;;;7.65;5.47;;;21.60;81.70;;;;;;5052605;28;20040;-74
2023/07/16 05:54:14;;;;;;;7.22;4.30;;;21.60;81.50;;;;;;5052928;28;20025;-73
2023/07/16 05:56:39;;;;;;;8.65;4.50;;;21.60;81.90;;;;;;5052757;28;20423;-74
2023/07/16 05:59:05;;;;;;;8.20;5.13;;;21.60;82.20;;;;;;5052728;28;20460;-74
2023/07/16 06:01:31;;;;;;;6.63;4.43;;;21.70;82.30;;;;;;5052562;28;20033;-74
2023/07/16 06:03:56;;;;;;;6.15;4.38;;;21.70;82.20;;;;;;5052500;28;20421;-74
2023/07/16 06:06:22;;;;;;;8.50;5.00;;;21.70;82.40;;;;;;5052591;28;20108;-74
2023/07/16 06:08:48;;;;;;;8.80;5.53;;;21.80;81.90;;;;;;5052699;28;20028;-74
2023/07/16 06:11:13;;;;;;;7.55;5.28;;;21.90;82.30;;;;;;5052522;28;20029;-74
2023/07/16 06:13:39;;;;;;;8.43;4.05;;;21.90;81.70;;;;;;5052672;28;20013;-76
2023/07/16 06:16:05;;;;;;;7.57;4.65;;;21.90;82.10;;;;;;5052501;28;20029;-75
2023/07/16 06:18:31;;;;;;;7.00;4.40;;;22.00;82.00;;;;;;5052331;28;20450;-74
2023/07/16 06:20:56;;;;;;;8.57;5.03;;;22.00;81.80;;;;;;5052429;28;20029;-74
2023/07/16 06:23:22;;;;;;;8.10;4.90;;;22.10;81.40;;;;;;5052541;28;20385;-74
2023/07/16 06:25:48;;;;;;;6.85;4.50;;;22.10;81.60;;;;;;5052433;28;20449;-75
2023/07/16 06:28:14;;;;;;;8.30;4.97;;;22.10;81.60;;;;;;5052388;28;20083;-75
2023/07/16 06:30:40;;;;;;;8.82;4.60;;;22.20;81.20;;;;;;5052457;28;20025;-75
2023/07/16 06:33:06;;;;;;;6.20;3.97;;;22.20;81.50;;;;;;5053884;28;20377;-75
2023/07/16 06:35:32;;;;;;;5.95;4.28;;;22.30;81.60;;;;;;5056105;28;20029;-75
2023/07/16 06:37:57;;;;;;;6.85;4.38;;;22.30;81.30;;;;;;5038054;28;20104;-75
2023/07/16 06:40:24;;;;;;;7.55;5.03;;;22.40;81.50;;;;;;5055791;28;20482;-75
2023/07/16 06:42:50;;;;;;;7.40;4.68;;;22.40;81.20;;;;;;5056397;28;20029;-75
2023/07/16 06:45:17;;;;;;;7.55;4.63;;;22.40;80.70;;;;;;5055882;28;20029;-75
2023/07/16 06:47:42;;;;;;;5.97;4.40;;;22.40;80.70;;;;;;5055604;28;20108;-75
2023/07/16 06:50:08;;;;;;;7.47;4.32;;;22.50;80.80;;;;;;5055837;28;20108;-75
2023/07/16 06:52:34;;;;;;;8.38;4.50;;;22.50;81.00;;;;;;5055578;28;20037;-74
2023/07/16 06:54:59;;;;;;;7.85;4.47;;;22.60;80.60;;;;;;5055806;28;20021;-74
2023/07/16 06:57:25;;;;;;;5.97;4.00;;;22.60;80.90;;;;;;5055624;28;20029;-75
2023/07/16 06:59:50;;;;;;;7.43;4.50;;;22.60;80.90;;;;;;5055843;28;20021;-74
2023/07/16 07:02:17;;;;;;;6.47;4.20;;;22.60;80.90;;;;;;5055271;28;20033;-75
2023/07/16 07:04:43;;;;;;;5.90;4.20;;;22.70;80.90;;;;;;5055763;28;20021;-75
2023/07/16 07:07:08;;;;;;;7.82;4.35;;;22.70;80.60;;;;;;5055577;28;20442;-74
2023/07/16 07:09:34;;;;;;;7.05;4.18;;;22.80;80.70;;;;;;5055530;28;20028;-75
2023/07/16 07:12:00;;;;;;;7.47;4.40;;;22.80;80.60;;;;;;5055484;28;20033;-75
2023/07/16 07:14:26;;;;;;;7.85;4.72;;;22.80;80.50;;;;;;5055298;28;20025;-75
2023/07/16 07:16:51;;;;;;;6.10;4.30;;;22.80;80.60;;;;;;5055063;28;20036;-75
2023/07/16 07:19:17;;;;;;;5.85;4.38;;;22.90;80.50;;;;;;5055205;28;20021;-74
2023/07/16 07:21:42;;;;;;;6.82;4.63;;;22.90;80.60;;;;;;5055286;28;20478;-74
2023/07/16 07:24:08;;;;;;;6.63;4.32;;;22.90;80.30;;;;;;5055324;28;20409;-75
2023/07/16 07:26:33;;;;;;;6.93;4.90;;;22.90;80.30;;;;;;5055146;28;20036;-75
2023/07/16 07:28:59;;;;;;;8.57;4.93;;;22.90;80.30;;;;;;5054978;28;20029;-74
2023/07/16 07:31:25;;;;;;;11.23;4.85;;;23.00;80.10;;;;;;5054758;28;20386;-75
2023/07/16 07:33:50;;;;;;;6.40;4.35;;;23.10;80.10;;;;;;5054993;28;20424;-75
2023/07/16 07:36:16;;;;;;;6.40;4.55;;;23.10;80.20;;;;;;5054991;28;20167;-74
2023/07/16 07:38:41;;;;;;;7.20;5.10;;;23.10;80.10;;;;;;5054845;28;20052;-75
2023/07/16 07:41:07;;;;;;;9.48;4.28;;;23.10;80.00;;;;;;5054713;28;20033;-75
2023/07/16 07:43:32;;;;;;;6.95;4.45;;;23.20;79.90;;;;;;5054399;28;20043;-74
2023/07/16 07:45:58;;;;;;;7.30;4.05;;;23.20;80.00;;;;;;5054022;28;20031;-76
2023/07/16 07:48:23;;;;;;;5.90;4.32;;;23.30;80.00;;;;;;5054721;28;20043;-75
2023/07/16 07:50:49;;;;;;;5.68;3.83;;;23.20;79.80;;;;;;5054708;28;20474;-76
2023/07/16 07:53:17;;;;;;;9.13;4.70;;;23.30;79.80;;;;;;5054514;28;20025;-75
2023/07/16 07:55:43;;;;;;;4.97;3.97;;;23.30;79.70;;;;;;5054734;28;20017;-75
2023/07/16 07:58:09;;;;;;;8.07;4.53;;;23.40;79.70;;;;;;5054514;28;20041;-75
2023/07/16 08:00:35;;;;;;;7.43;4.78;;;23.40;79.60;;;;;;5054162;28;20086;-75
2023/07/16 08:03:01;;;;;;;7.85;4.45;;;23.40;79.50;;;;;;5054314;28;20025;-75
2023/07/16 08:05:27;;;;;;;8.98;4.88;;;23.40;79.40;;;;;;5054462;28;20017;-75
2023/07/16 08:07:55;;;;;;;7.78;4.35;;;23.40;79.30;;;;;;5054498;28;20025;-75
2023/07/16 08:10:22;;;;;;;7.15;4.25;;;23.40;79.20;;;;;;5053971;28;20059;-76
2023/07/16 08:12:48;;;;;;;9.35;4.72;;;23.40;79.20;;;;;;5054721;28;20033;-75
2023/07/16 08:15:14;;;;;;;8.48;4.53;;;23.50;79.00;;;;;;5053918;28;20055;-75
2023/07/16 08:17:44;;;;;;;5.38;4.20;;;23.50;79.10;;;;;;5054474;28;20069;-75
2023/07/16 08:20:10;;;;;;;5.03;3.88;;;23.50;79.10;;;;;;5053906;28;20100;-75
2023/07/16 08:22:36;;;;;;;6.80;4.50;;;23.50;79.10;;;;;;5054151;28;20033;-75
2023/07/16 08:25:04;;;;;;;6.47;4.80;;;23.50;79.00;;;;;;5054052;28;20017;-74
2023/07/16 08:27:30;;;;;;;10.90;4.15;;;23.60;79.00;;;;;;5054097;28;20036;-74
2023/07/16 08:29:56;;;;;;;8.52;4.60;;;23.50;78.90;;;;;;5053642;28;20017;-75
2023/07/16 08:32:22;;;;;;;5.22;3.72;;;23.60;78.90;;;;;;5053865;28;20051;-75
2023/07/16 08:34:47;;;;;;;6.45;4.10;;;23.60;79.00;;;;;;5053901;28;20020;-75
2023/07/16 08:37:14;;;;;;;7.25;4.78;;;23.60;78.90;;;;;;5036035;28;20025;-75
2023/07/16 08:39:39;;;;;;;7.43;5.00;;;23.70;78.90;;;;;;5053670;28;20036;-75
2023/07/16 08:42:06;;;;;;;9.23;4.78;;;23.60;78.80;;;;;;5053714;28;20033;-75
2023/07/16 08:44:32;;;;;;;6.47;4.22;;;23.70;78.90;;;;;;5053268;28;20028;-74
2023/07/16 08:46:58;;;;;;;9.10;4.28;;;23.70;78.90;;;;;;5053825;28;20029;-75
2023/07/16 08:49:29;;;;;;;8.43;4.05;;;23.70;78.70;;;;;;5053667;28;20021;-75
2023/07/16 08:51:56;;;;;;;8.00;4.88;;;23.70;78.80;;;;;;5053538;28;20040;-75
2023/07/16 08:54:22;;;;;;;5.80;4.13;;;23.70;78.80;;;;;;5053423;28;20490;-74
2023/07/16 08:56:48;;;;;;;5.57;3.95;;;23.70;78.70;;;;;;5053771;28;20024;-74
2023/07/16 08:59:15;;;;;;;9.02;4.10;;;23.80;78.80;;;;;;5053076;28;20021;-74
2023/07/16 09:01:40;;;;;;;7.22;4.07;;;23.80;78.80;;;;;;5053459;28;20036;-74
2023/07/16 09:04:06;;;;;;;6.70;4.28;;;23.80;78.70;;;;;;5053560;28;20025;-74
2023/07/16 09:06:32;;;;;;;7.75;4.20;;;23.80;78.70;;;;;;5053199;28;20032;-75
2023/07/16 09:08:58;;;;;;;8.23;4.25;;;23.80;78.70;;;;;;5053534;28;20024;-74
2023/07/16 09:11:23;;;;;;;6.72;4.30;;;23.80;78.70;;;;;;5053121;28;20104;-74
2023/07/16 09:13:50;;;;;;;6.30;4.05;;;23.80;78.70;;;;;;5053182;28;20496;-74
2023/07/16 09:16:18;;;;;;;6.70;4.65;;;23.80;78.50;;;;;;5053460;28;20052;-74
2023/07/16 09:18:45;;;;;;;7.97;4.30;;;23.80;78.60;;;;;;5053244;28;20021;-75
2023/07/16 09:21:11;;;;;;;6.90;3.60;;;23.80;78.60;;;;;;5053198;28;20111;-75
2023/07/16 09:23:37;;;;;;;6.95;3.90;;;23.80;78.70;;;;;;5053235;28;20045;-75
2023/07/16 09:26:05;;;;;;;6.90;4.00;;;23.80;78.60;;;;;;5053005;28;20076;-75
2023/07/16 09:28:31;;;;;;;4.90;3.58;;;23.80;78.60;;;;;;5052822;28;20131;-75
2023/07/16 09:31:04;;;;;;;7.97;4.20;;;23.80;78.60;;;;;;5052912;28;20477;-75
2023/07/16 09:33:31;;;;;;;8.40;4.10;;;23.80;78.40;;;;;;5053040;28;20428;-74
2023/07/16 09:35:57;;;;;;;6.07;4.57;;;23.80;78.40;;;;;;5052868;28;20021;-75
2023/07/16 09:38:24;;;;;;;5.47;3.72;;;23.80;78.50;;;;;;5053277;28;20040;-75
2023/07/16 09:40:52;;;;;;;5.60;3.70;;;23.80;78.40;;;;;;5052655;28;20025;-75
2023/07/16 09:43:17;;;;;;;7.57;3.63;;;23.80;78.50;;;;;;5034839;28;20474;-75
2023/07/16 09:45:43;;;;;;;7.18;4.00;;;23.80;78.40;;;;;;5052843;28;20042;-75
2023/07/16 09:48:09;;;;;;;10.73;4.28;;;23.80;78.40;;;;;;5053113;28;20505;-75
2023/07/16 09:50:36;;;;;;;5.88;4.03;;;23.80;78.40;;;;;;5052601;28;20033;-75
2023/07/16 09:53:04;;;;;;;5.50;3.90;;;23.80;78.30;;;;;;5034976;28;20147;-74
2023/07/16 09:55:33;;;;;;;6.93;3.90;;;23.80;78.40;;;;;;5052687;28;20106;-74
2023/07/16 09:58:05;;;;;;;5.82;3.88;;;23.80;78.20;;;;;;5052538;28;20103;-76
2023/07/16 10:00:32;;;;;;;8.52;4.00;;;23.90;78.50;;;;;;5034680;28;20458;-75
2023/07/16 10:02:58;;;;;;;5.22;4.07;;;23.80;78.30;;;;;;5052804;28;20033;-75
2023/07/16 10:05:27;;;;;;;8.27;3.85;;;23.80;78.50;;;;;;5052956;28;20029;-74
2023/07/16 10:08:00;;;;;;;8.07;4.45;;;23.90;78.70;;;;;;5054027;28;20051;-74
2023/07/16 10:10:40;;;;;;;7.20;4.47;;;23.80;79.80;;;;;;5056386;28;20104;-75
2023/07/16 10:13:10;;;;;;;8.40;4.55;;;23.90;79.50;;;;;;5056415;28;20061;-74
2023/07/16 10:15:36;;;;;;;6.10;4.18;;;23.80;81.30;;;;;;5056454;28;20082;-74
2023/07/16 10:18:01;;;;;;;8.90;4.00;;;23.90;80.80;;;;;;5056254;28;20469;-75
2023/07/16 10:20:32;;;;;;;8.40;4.10;;;23.90;81.20;;;;;;5038594;28;20029;-75
2023/07/16 10:22:58;;;;;;;6.57;4.05;;;23.90;81.60;;;;;;5056472;28;20107;-74
2023/07/16 10:25:26;;;;;;;6.15;4.28;;;23.80;80.60;;;;;;5056225;28;20504;-74
2023/07/16 10:27:53;;;;;;;7.35;3.88;;;23.90;80.20;;;;;;5056177;28;20500;-75
2023/07/16 10:30:19;;;;;;;6.00;3.70;;;23.90;80.40;;;;;;5056170;28;20059;-75
2023/07/16 10:32:46;;;;;;;6.65;3.58;;;23.90;80.10;;;;;;5056135;28;20067;-74
2023/07/16 10:35:12;;;;;;;4.13;3.00;;;23.90;79.80;;;;;;5038332;28;20017;-74
2023/07/16 10:37:39;;;;;;;6.28;3.75;;;23.90;79.90;;;;;;5038113;28;20029;-75
2023/07/16 10:40:07;;;;;;;5.63;3.45;;;23.90;79.60;;;;;;5055849;28;20028;-75
2023/07/16 10:42:32;;;;;;;4.72;3.13;;;23.90;79.70;;;;;;5055992;28;20516;-75
2023/07/16 10:45:03;;;;;;;5.53;3.40;;;23.90;79.60;;;;;;5055965;28;20048;-75
2023/07/16 10:47:32;;;;;;;4.97;3.17;;;23.90;79.60;;;;;;5055894;28;20028;-74
2023/07/16 10:49:58;;;;;;;5.07;3.35;;;23.90;79.50;;;;;;5055981;28;20466;-75
2023/07/16 10:52:24;;;;;;;4.82;3.00;;;23.90;79.40;;;;;;5055378;28;20029;-74
2023/07/16 10:54:54;;;;;;;3.85;2.72;;;23.90;79.50;;;;;;5037545;28;20035;-74
2023/07/16 10:57:26;;;;;;;5.97;2.50;;;23.90;79.60;;;;;;5055525;28;20070;-74
2023/07/16 10:59:52;;;;;;;6.75;2.63;;;23.90;79.90;;;;;;5055493;28;20036;-74
2023/07/16 11:02:20;;;;;;;5.63;3.30;;;24.00;79.80;;;;;;5055650;28;20071;-75
2023/07/16 11:04:47;;;;;;;4.72;2.35;;;23.90;79.60;;;;;;5055534;28;20013;-74
2023/07/16 11:07:13;;;;;;;4.90;2.33;;;23.90;79.70;;;;;;5055493;28;20469;-74
2023/07/16 11:09:45;;;;;;;3.97;2.60;;;24.00;79.70;;;;;;5055140;28;20524;-74
2023/07/16 11:12:16;;;;;;;4.27;2.60;;;24.00;79.60;;;;;;5055571;28;20033;-74
2023/07/16 11:14:46;;;;;;;4.10;2.58;;;24.00;79.50;;;;;;5055413;28;20063;-74
2023/07/16 11:17:13;;;;;;;7.45;2.65;;;24.00;79.30;;;;;;5055387;28;20028;-74
2023/07/16 11:19:39;;;;;;;2.88;1.98;;;24.00;79.40;;;;;;5053932;28;20296;-74
2023/07/16 11:22:06;;;;;;;4.50;2.47;;;24.00;79.30;;;;;;5037339;28;20034;-74
2023/07/16 11:24:49;;;;;;;4.22;2.38;;;24.00;79.30;;;;;;5054921;28;20147;-74
2023/07/16 11:27:16;;;;;;;2.95;2.13;;;24.00;79.50;;;;;;5037241;28;20378;-74
2023/07/16 11:29:46;;;;;;;3.97;2.15;;;24.00;79.30;;;;;;5055032;28;20017;-74
2023/07/16 11:32:12;;;;;;;4.88;1.58;;;24.00;79.20;;;;;;5054944;28;20489;-75
2023/07/16 11:34:37;;;;;;;4.65;2.25;;;24.00;78.90;;;;;;5037067;28;20017;-75
2023/07/16 11:37:11;;;;;;;6.20;2.70;;;24.00;79.10;;;;;;5055171;28;20500;-75
2023/07/16 11:39:36;;;;;;;4.15;2.53;;;24.00;79.20;;;;;;5036613;28;20036;-75
2023/07/16 11:42:04;;;;;;;5.32;2.00;;;24.00;79.20;;;;;;5054961;28;20040;-75
2023/07/16 11:44:35;;;;;;;4.28;2.20;;;24.00;79.10;;;;;;5054710;28;20104;-74
2023/07/16 11:47:02;;;;;;;3.40;2.10;;;24.00;79.10;;;;;;5054899;28;20025;-74
2023/07/16 11:49:28;;;;;;;3.33;1.85;;;24.00;79.10;;;;;;5054685;28;20052;-74
2023/07/16 11:51:53;;;;;;;2.97;1.85;;;24.00;79.10;;;;;;5054213;28;20067;-75
2023/07/16 11:54:19;;;;;;;3.75;2.22;;;24.00;79.10;;;;;;5054584;28;20025;-75
2023/07/16 11:56:46;;;;;;;4.50;1.95;;;24.00;79.10;;;;;;5054619;28;20039;-74
2023/07/16 11:59:16;;;;;;;4.32;2.20;;;24.00;79.10;;;;;;5054519;28;20023;-74
2023/07/16 12:01:42;;;;;;;3.72;2.10;;;24.00;78.70;;;;;;5054459;28;20036;-74
2023/07/16 12:04:07;;;;;;;3.78;2.10;;;24.00;78.90;;;;;;5054332;28;20458;-74
2023/07/16 12:06:33;;;;;;;3.40;2.05;;;24.00;79.70;;;;;;5054189;28;20033;-74
2023/07/16 12:09:01;;;;;;;3.38;1.98;;;24.00;79.00;;;;;;5054141;28;20040;-74
2023/07/16 12:11:27;;;;;;;5.38;2.25;;;24.00;79.00;;;;;;5054366;28;20039;-74
2023/07/16 12:13:52;;;;;;;4.15;2.35;;;24.10;79.10;;;;;;5054238;28;20021;-74
2023/07/16 12:16:18;;;;;;;4.75;2.20;;;24.10;79.00;;;;;;5036331;28;20044;-74
2023/07/16 12:18:43;;;;;;;3.00;1.70;;;24.00;79.00;;;;;;5054034;28;20095;-74
2023/07/16 12:21:09;;;;;;;4.32;2.25;;;24.10;79.00;;;;;;5053856;28;20381;-74
2023/07/16 12:23:34;;;;;;;3.85;2.10;;;24.10;78.70;;;;;;5054058;28;20490;-74
2023/07/16 12:26:00;;;;;;;3.33;2.10;;;24.10;78.90;;;;;;5054090;28;20489;-74
2023/07/16 12:28:26;;;;;;;3.30;2.00;;;24.10;78.80;;;;;;5054015;28;20581;-74
2023/07/16 12:30:51;;;;;;;4.63;2.55;;;24.10;78.70;;;;;;5053458;28;20029;-74
2023/07/16 12:33:17;;;;;;;3.92;2.10;;;24.10;78.80;;;;;;5035596;28;20128;-74
2023/07/16 12:35:43;;;;;;;2.38;1.80;;;24.10;78.90;;;;;;5053514;28;20025;-74
2023/07/16 12:38:09;;;;;;;4.68;2.65;;;24.10;78.80;;;;;;5054150;28;20036;-74
2023/07/16 12:40:39;;;;;;;3.35;2.10;;;24.10;78.80;;;;;;5035739;28;20025;-74
2023/07/16 12:43:05;;;;;;;4.15;2.03;;;24.10;78.80;;;;;;5053599;28;20075;-74